Time;durP1;ratioP1;P1;durP2;ratioP2;P2;SDS_P1;SDS_P2;PMS_P1;PMS_P2;Temp;Humidity;BMP_temperature;BMP_pressure;BME280_temperature;BME280_humidity;BME280_pressure;Samples;Min_cycle;Max_cycle;Signal;HPM_P1;HPM_P2
2022/05/24 00:01:10;;;;;;;5.00;2.65;;;10.60;99.90;;;;;;5009204;28;20069;-54
2022/05/24 00:03:39;;;;;;;4.40;3.00;;;10.50;99.90;;;;;;4994556;28;20049;-54
2022/05/24 00:06:07;;;;;;;11.02;3.10;;;10.50;99.90;;;;;;5008901;28;20050;-55
2022/05/24 00:08:36;;;;;;;6.33;2.50;;;10.50;99.90;;;;;;5009639;28;20053;-55
2022/05/24 00:11:04;;;;;;;3.85;2.65;;;10.40;99.90;;;;;;5009842;28;20169;-56
2022/05/24 00:13:31;;;;;;;4.82;2.65;;;10.40;99.90;;;;;;5009549;28;20048;-54
2022/05/24 00:15:59;;;;;;;6.72;3.42;;;10.40;99.90;;;;;;5010151;28;20038;-55
2022/05/24 00:18:28;;;;;;;7.20;3.40;;;10.30;99.90;;;;;;5002359;28;20421;-55
2022/05/24 00:20:59;;;;;;;7.40;2.97;;;10.20;99.90;;;;;;5010097;28;20401;-56
2022/05/24 00:23:29;;;;;;;6.93;3.05;;;10.20;99.90;;;;;;5009513;28;20299;-55
2022/05/24 00:26:00;;;;;;;5.05;3.35;;;10.20;99.90;;;;;;5009725;28;20061;-56
2022/05/24 00:28:31;;;;;;;6.35;3.15;;;10.20;99.90;;;;;;5009727;28;20065;-56
2022/05/24 00:30:59;;;;;;;7.65;3.38;;;10.10;99.90;;;;;;5009699;28;20061;-55
2022/05/24 00:33:27;;;;;;;5.90;3.47;;;10.10;99.90;;;;;;4995527;28;20501;-55
2022/05/24 00:35:55;;;;;;;8.30;3.38;;;10.10;99.90;;;;;;5008492;28;20050;-56
2022/05/24 00:38:36;;;;;;;6.22;3.30;;;10.10;99.90;;;;;;5012042;28;20049;-55
2022/05/24 00:41:10;;;;;;;7.80;2.88;;;10.10;99.90;;;;;;5013555;28;20049;-56
2022/05/24 00:43:53;;;;;;;3.75;2.80;;;10.10;99.90;;;;;;5012984;28;20063;-56
2022/05/24 00:46:27;;;;;;;5.45;2.47;;;10.10;99.90;;;;;;5013434;28;20045;-56
2022/05/24 00:48:57;;;;;;;6.50;2.42;;;10.10;99.90;;;;;;5007578;28;20053;-56
2022/05/24 00:51:36;;;;;;;4.68;2.65;;;10.10;99.90;;;;;;5013666;28;20057;-56
2022/05/24 00:54:04;;;;;;;3.83;2.40;;;10.10;99.90;;;;;;5013245;28;20651;-56
2022/05/24 00:57:00;;;;;;;3.60;2.13;;;10.10;99.90;;;;;;5013059;28;20046;-55
2022/05/24 00:59:44;;;;;;;3.20;2.50;;;10.10;99.90;;;;;;5012866;28;20041;-57
2022/05/24 01:02:12;;;;;;;6.43;2.72;;;10.00;99.90;;;;;;5009090;28;20049;-56
2022/05/24 01:04:41;;;;;;;4.78;2.78;;;10.00;99.90;;;;;;5000303;28;20046;-56
2022/05/24 01:07:09;;;;;;;4.78;2.35;;;10.00;99.90;;;;;;5009983;28;20053;-57
2022/05/24 01:09:54;;;;;;;4.18;2.70;;;9.90;99.90;;;;;;5011315;28;20054;-56
2022/05/24 01:12:38;;;;;;;10.95;3.40;;;9.90;99.90;;;;;;5012770;28;20065;-55
2022/05/24 01:15:08;;;;;;;4.35;2.65;;;9.90;99.90;;;;;;5012707;28;20054;-55
2022/05/24 01:17:37;;;;;;;5.10;2.70;;;9.90;99.90;;;;;;4991363;28;20492;-56
2022/05/24 01:20:06;;;;;;;8.10;3.15;;;9.90;99.90;;;;;;4995686;28;20045;-56
2022/05/24 01:22:46;;;;;;;3.83;2.08;;;9.90;99.90;;;;;;5012874;28;20042;-57
2022/05/24 01:25:24;;;;;;;4.38;2.60;;;9.90;99.90;;;;;;5011415;28;20057;-56
2022/05/24 01:27:52;;;;;;;5.00;2.88;;;9.90;99.90;;;;;;5012687;28;20050;-56
2022/05/24 01:30:20;;;;;;;4.55;2.25;;;9.90;99.90;;;;;;5012522;28;20061;-56
2022/05/24 01:38:24;;;;;;;5.25;2.42;;;9.90;99.90;;;;;;5001184;28;20054;-56
2022/05/24 01:40:54;;;;;;;5.18;2.70;;;9.90;99.90;;;;;;5012883;28;20057;-57
2022/05/24 01:43:24;;;;;;;5.03;2.08;;;9.90;99.90;;;;;;5014071;28;20041;-57
2022/05/24 01:46:00;;;;;;;2.97;2.10;;;9.90;99.90;;;;;;5012388;28;20052;-57
2022/05/24 01:48:35;;;;;;;6.55;3.20;;;9.80;99.90;;;;;;5013223;28;20054;-57
2022/05/24 01:51:05;;;;;;;4.78;3.08;;;9.80;99.90;;;;;;5013975;28;20050;-56
2022/05/24 01:53:40;;;;;;;;;;;9.80;99.90;;;;;;5014314;28;20042;-56
2022/05/24 01:56:40;;;;;;;3.33;2.65;;;9.80;99.90;;;;;;5013836;28;19997;-57
2022/05/24 01:59:08;;;;;;;4.38;2.50;;;9.80;99.90;;;;;;5013175;28;20046;-56
2022/05/24 02:01:43;;;;;;;4.03;2.58;;;9.80;99.90;;;;;;5012274;28;20057;-57
2022/05/24 02:04:11;;;;;;;5.35;2.63;;;9.80;99.90;;;;;;5013622;28;20045;-57
2022/05/24 02:06:39;;;;;;;3.20;2.63;;;9.80;99.90;;;;;;5013383;28;20057;-56
2022/05/24 02:09:08;;;;;;;5.63;2.35;;;9.80;99.90;;;;;;5013327;28;20048;-56
2022/05/24 02:11:36;;;;;;;2.90;2.33;;;9.80;99.90;;;;;;5012930;28;20053;-56
2022/05/24 02:14:19;;;;;;;6.43;2.92;;;9.80;99.90;;;;;;5013300;28;20056;-56
2022/05/24 02:16:57;;;;;;;3.65;2.50;;;9.90;99.90;;;;;;5013445;28;20042;-56
2022/05/24 02:19:27;;;;;;;5.55;2.53;;;9.90;99.90;;;;;;5012848;28;20050;-56
2022/05/24 02:22:00;;;;;;;6.57;3.13;;;9.90;99.90;;;;;;5011993;28;20497;-56
2022/05/24 02:24:28;;;;;;;3.80;2.92;;;9.90;99.90;;;;;;5013282;28;20050;-56
2022/05/24 02:26:57;;;;;;;3.65;2.53;;;10.00;99.90;;;;;;5012157;28;20046;-57
2022/05/24 02:29:25;;;;;;;7.85;2.90;;;10.00;99.90;;;;;;5013182;28;20046;-57
2022/05/24 02:31:53;;;;;;;5.40;2.75;;;10.00;99.90;;;;;;5044995;28;20049;-56
2022/05/24 02:34:20;;;;;;;6.68;2.88;;;10.40;99.90;;;;;;5011946;28;20045;-56
2022/05/24 02:36:48;;;;;;;3.78;2.53;;;10.10;99.90;;;;;;5012978;28;20045;-56
2022/05/24 02:39:16;;;;;;;4.03;2.90;;;10.10;99.90;;;;;;5012874;28;20050;-56
2022/05/24 02:41:46;;;;;;;4.68;2.85;;;10.10;99.90;;;;;;5011805;28;20539;-55
2022/05/24 02:44:16;;;;;;;4.85;2.50;;;10.10;99.90;;;;;;5011923;28;20053;-56
2022/05/24 02:46:45;;;;;;;;;;;10.10;99.90;;;;;;5012782;28;20057;-55
2022/05/24 02:49:13;;;;;;;5.85;2.60;;;10.00;99.90;;;;;;5012827;28;19928;-55
2022/05/24 02:51:41;;;;;;;5.22;2.55;;;10.00;99.90;;;;;;5012573;28;20061;-56
2022/05/24 02:54:09;;;;;;;5.05;3.47;;;10.00;99.90;;;;;;5012814;28;20052;-55
2022/05/24 02:56:36;;;;;;;2.95;2.45;;;10.00;99.90;;;;;;5012623;28;20046;-55
2022/05/24 02:59:05;;;;;;;2.97;2.53;;;9.90;99.90;;;;;;5011590;28;20050;-55
2022/05/24 03:01:32;;;;;;;7.90;2.50;;;9.90;99.90;;;;;;5012206;28;20386;-56
2022/05/24 03:04:01;;;;;;;3.22;2.17;;;9.90;99.90;;;;;;5012538;28;20489;-56
2022/05/24 03:09:33;;;;;;;5.03;2.55;;;9.90;99.90;;;;;;5012602;28;20045;-56
2022/05/24 03:09:35;;;;;;;6.70;2.00;;;9.90;99.90;;;;;;5012324;28;20485;-57
2022/05/24 03:14:53;;;;;;;4.45;2.08;;;9.80;99.90;;;;;;5012422;28;20053;-56
2022/05/24 03:17:21;;;;;;;5.05;2.20;;;9.80;99.90;;;;;;5012313;28;20050;-56
2022/05/24 03:19:49;;;;;;;5.32;2.13;;;9.80;99.90;;;;;;5012390;28;20049;-56
2022/05/24 03:22:16;;;;;;;2.75;1.75;;;9.80;99.90;;;;;;5012146;28;20049;-56
2022/05/24 03:24:44;;;;;;;3.38;1.90;;;9.80;99.90;;;;;;4994909;28;20054;-56
2022/05/24 03:27:13;;;;;;;6.93;2.25;;;9.80;99.90;;;;;;5012479;28;20050;-56
2022/05/24 03:29:42;;;;;;;3.97;1.83;;;9.80;99.90;;;;;;5011972;28;20141;-56
2022/05/24 03:32:12;;;;;;;2.10;1.47;;;9.80;99.90;;;;;;5012187;28;20049;-56
2022/05/24 03:34:40;;;;;;;;;;;9.80;99.90;;;;;;5012674;28;20299;-56
2022/05/24 03:37:08;;;;;;;2.83;1.83;;;9.80;99.90;;;;;;5011905;28;19928;-56
2022/05/24 03:39:36;;;;;;;4.15;1.58;;;9.70;99.90;;;;;;5011887;28;20042;-56
2022/05/24 03:42:05;;;;;;;3.28;1.48;;;9.70;99.90;;;;;;5012039;28;20046;-56
2022/05/24 03:44:32;;;;;;;4.47;1.42;;;9.70;99.90;;;;;;5011875;28;20042;-56
2022/05/24 03:47:00;;;;;;;5.80;1.50;;;9.70;99.90;;;;;;5011994;28;20054;-56
2022/05/24 03:49:28;;;;;;;6.18;1.88;;;9.70;99.90;;;;;;5011418;28;20069;-56
2022/05/24 03:51:55;;;;;;;4.80;1.75;;;9.70;99.90;;;;;;5010738;28;20038;-56
2022/05/24 03:54:23;;;;;;;5.03;1.40;;;9.60;99.90;;;;;;5011438;28;20389;-56
2022/05/24 03:59:37;;;;;;;1.70;1.02;;;9.60;99.90;;;;;;5010520;28;20049;-56
2022/05/24 04:02:04;;;;;;;3.88;1.33;;;9.60;99.90;;;;;;5011691;28;20050;-56
2022/05/24 04:04:32;;;;;;;2.75;0.95;;;9.60;99.90;;;;;;5011644;28;20394;-57
2022/05/24 04:07:00;;;;;;;3.28;1.15;;;9.60;99.90;;;;;;5011692;28;20050;-56
2022/05/24 04:09:28;;;;;;;1.83;0.90;;;9.60;99.90;;;;;;5011613;28;20054;-56
2022/05/24 04:11:55;;;;;;;4.15;1.50;;;9.70;99.90;;;;;;5012657;28;20398;-56
2022/05/24 04:14:23;;;;;;;3.95;1.15;;;9.70;99.90;;;;;;5015600;28;20046;-56
2022/05/24 04:16:52;;;;;;;4.40;1.20;;;9.70;99.90;;;;;;5015688;28;20046;-56
2022/05/24 04:19:20;;;;;;;2.13;1.60;;;9.70;99.90;;;;;;5015423;28;20041;-56
2022/05/24 04:21:47;;;;;;;3.17;1.15;;;9.70;99.90;;;;;;5014311;28;20076;-56
2022/05/24 04:24:18;;;;;;;1.65;0.82;;;9.60;99.90;;;;;;5015536;28;20413;-56
2022/05/24 04:26:46;;;;;;;4.45;1.10;;;9.70;99.90;;;;;;5014219;28;20057;-56
2022/05/24 04:29:14;;;;;;;2.42;0.75;;;9.80;99.90;;;;;;5015493;28;20126;-56
2022/05/24 04:31:42;;;;;;;4.25;1.00;;;9.60;99.90;;;;;;5014087;28;20054;-56
2022/05/24 04:34:14;;;;;;;3.03;1.17;;;9.60;99.90;;;;;;5015431;28;20053;-56
2022/05/24 04:36:41;;;;;;;1.63;0.90;;;9.60;99.90;;;;;;5015223;28;20449;-56
2022/05/24 04:39:09;;;;;;;4.28;1.17;;;9.60;99.90;;;;;;5015113;28;20050;-56
2022/05/24 04:44:22;;;;;;;2.47;1.17;;;9.50;99.90;;;;;;5013888;28;20057;-56
2022/05/24 04:47:09;;;;;;;5.25;1.02;;;9.50;99.90;;;;;;5015276;28;20077;-57
2022/05/24 04:49:39;;;;;;;2.30;0.82;;;9.40;99.90;;;;;;4992247;28;20050;-56
2022/05/24 04:52:11;;;;;;;1.88;0.75;;;9.30;99.90;;;;;;4992394;28;20054;-56
2022/05/24 04:54:40;;;;;;;7.82;1.25;;;9.30;99.90;;;;;;4990447;28;20054;-56
2022/05/24 04:57:09;;;;;;;2.38;0.93;;;9.20;99.90;;;;;;4993464;28;20398;-56
2022/05/24 04:59:37;;;;;;;3.22;0.73;;;9.20;99.90;;;;;;5011385;28;20061;-57
2022/05/24 05:02:06;;;;;;;5.75;1.17;;;9.10;99.90;;;;;;5006001;28;20049;-57
2022/05/24 05:04:34;;;;;;;2.17;1.20;;;9.20;99.90;;;;;;4990506;28;20042;-57
2022/05/24 05:07:03;;;;;;;4.32;1.27;;;9.20;99.90;;;;;;4990718;28;20509;-58
2022/05/24 05:09:34;;;;;;;3.20;1.38;;;9.20;99.90;;;;;;5008192;28;20058;-56
2022/05/24 05:12:04;;;;;;;3.88;1.20;;;9.30;99.90;;;;;;5011810;28;20524;-56
2022/05/24 05:14:32;;;;;;;1.70;1.10;;;9.30;99.90;;;;;;5011499;28;20050;-56
2022/05/24 05:17:01;;;;;;;5.05;1.48;;;9.40;99.90;;;;;;5010153;28;20057;-56
2022/05/24 05:19:30;;;;;;;2.63;1.08;;;9.40;99.90;;;;;;4990904;28;20046;-56
2022/05/24 05:21:57;;;;;;;7.10;1.48;;;9.50;99.90;;;;;;4993216;28;20043;-56
2022/05/24 05:24:25;;;;;;;5.45;1.20;;;9.50;99.90;;;;;;5012280;28;20054;-56
2022/05/24 05:26:52;;;;;;;1.25;1.00;;;9.50;99.90;;;;;;5012692;28;20050;-56
2022/05/24 05:32:26;;;;;;;3.03;1.70;;;9.60;99.90;;;;;;5002729;28;20054;-55
2022/05/24 05:34:54;;;;;;;3.22;0.98;;;9.60;99.90;;;;;;4992813;28;20042;-56
2022/05/24 05:37:22;;;;;;;6.68;1.35;;;9.60;99.90;;;;;;4991942;28;20050;-56
2022/05/24 05:39:53;;;;;;;4.53;2.03;;;9.70;99.90;;;;;;4999241;28;20046;-56
2022/05/24 05:42:21;;;;;;;5.38;1.23;;;9.50;99.90;;;;;;4993926;28;20046;-57
2022/05/24 05:44:49;;;;;;;9.30;1.55;;;9.70;99.90;;;;;;5007727;28;20056;-56
2022/05/24 05:47:18;;;;;;;3.78;1.42;;;9.70;99.90;;;;;;5009037;28;20800;-56
2022/05/24 05:49:46;;;;;;;4.18;1.58;;;9.70;99.90;;;;;;4991097;28;20830;-56
2022/05/24 05:52:15;;;;;;;4.97;1.10;;;9.80;99.90;;;;;;4995324;28;20516;-56
2022/05/24 05:54:43;;;;;;;6.18;1.25;;;9.80;99.90;;;;;;5011091;28;20046;-55
2022/05/24 05:57:12;;;;;;;10.73;1.58;;;9.90;99.90;;;;;;5011764;28;20072;-56
2022/05/24 05:59:39;;;;;;;2.97;0.98;;;9.90;99.90;;;;;;5010856;28;20501;-56
2022/05/24 06:02:08;;;;;;;5.68;1.45;;;10.00;99.90;;;;;;5011867;28;20502;-56
2022/05/24 06:04:36;;;;;;;3.47;1.20;;;10.10;99.90;;;;;;4996189;28;20057;-55
2022/05/24 06:07:04;;;;;;;6.75;1.40;;;10.20;99.90;;;;;;4992797;28;20050;-56
2022/05/24 06:09:32;;;;;;;2.67;1.20;;;10.20;99.90;;;;;;5011745;28;20410;-55
2022/05/24 06:12:00;;;;;;;3.72;1.50;;;10.30;99.90;;;;;;5011830;28;20056;-55
2022/05/24 06:14:28;;;;;;;3.05;1.08;;;10.40;99.90;;;;;;5010555;28;20056;-55
2022/05/24 06:17:18;;;;;;;4.72;1.42;;;10.50;99.90;;;;;;5011484;28;20050;-55
2022/05/24 06:19:45;;;;;;;7.25;1.40;;;10.50;99.90;;;;;;4994956;28;20053;-56
2022/05/24 06:22:13;;;;;;;5.30;1.85;;;10.50;99.90;;;;;;4995085;28;20038;-56
2022/05/24 06:24:41;;;;;;;5.28;1.20;;;10.50;99.90;;;;;;5011356;28;20054;-56
2022/05/24 06:27:09;;;;;;;4.32;1.48;;;10.60;99.90;;;;;;5011491;28;20394;-56
2022/05/24 06:29:37;;;;;;;20.20;2.28;;;10.70;99.90;;;;;;5010254;28;20053;-56
2022/05/24 06:32:05;;;;;;;4.55;1.35;;;10.80;99.90;;;;;;5008401;28;20057;-56
2022/05/24 06:34:33;;;;;;;1.33;1.23;;;10.90;99.90;;;;;;4993509;28;20475;-56
2022/05/24 06:37:00;;;;;;;4.35;1.23;;;11.00;99.90;;;;;;4989864;28;20054;-56
2022/05/24 06:39:29;;;;;;;3.17;1.20;;;11.10;99.90;;;;;;5010279;28;20046;-56
2022/05/24 06:42:00;;;;;;;7.25;1.45;;;11.30;99.90;;;;;;5008189;28;20046;-56
2022/05/24 06:44:33;;;;;;;5.15;1.27;;;11.30;99.90;;;;;;4997472;28;20046;-56
2022/05/24 06:47:01;;;;;;;3.22;1.33;;;11.40;99.90;;;;;;4988296;28;20053;-56
2022/05/24 06:49:29;;;;;;;1.55;1.17;;;11.40;99.90;;;;;;4992084;28;20057;-57
2022/05/24 06:51:56;;;;;;;2.38;1.30;;;11.40;99.90;;;;;;4992197;28;20054;-57
2022/05/24 06:54:24;;;;;;;2.88;1.23;;;11.40;99.90;;;;;;5010939;28;20050;-55
2022/05/24 06:56:53;;;;;;;2.67;1.60;;;11.30;99.90;;;;;;5010834;28;20049;-56
2022/05/24 07:02:25;;;;;;;3.65;1.25;;;11.30;99.90;;;;;;5008823;28;20045;-55
2022/05/24 07:05:01;;;;;;;7.28;1.45;;;11.30;99.90;;;;;;4992767;28;20050;-56
2022/05/24 07:07:32;;;;;;;1.35;1.00;;;11.40;99.90;;;;;;4993300;28;20069;-55
2022/05/24 07:10:01;;;;;;;4.18;1.10;;;11.50;99.90;;;;;;5010437;28;20401;-56
2022/05/24 07:12:29;;;;;;;1.75;0.80;;;11.60;99.90;;;;;;5010639;28;20065;-56
2022/05/24 07:14:58;;;;;;;4.85;0.93;;;11.60;99.90;;;;;;5010682;28;20505;-55
2022/05/24 07:17:26;;;;;;;2.73;1.40;;;11.70;99.90;;;;;;5010623;28;20045;-56
2022/05/24 07:19:53;;;;;;;4.28;1.20;;;11.80;99.90;;;;;;4996246;28;20054;-56
2022/05/24 07:22:21;;;;;;;4.68;1.55;;;11.90;99.90;;;;;;4993596;28;20417;-56
2022/05/24 07:24:49;;;;;;;8.48;1.10;;;11.90;99.90;;;;;;5010607;28;20474;-55
2022/05/24 07:27:20;;;;;;;2.10;0.80;;;11.90;99.90;;;;;;5007959;28;20556;-56
2022/05/24 07:29:48;;;;;;;;;;;11.90;99.90;;;;;;5007735;28;20520;-56
2022/05/24 07:32:16;;;;;;;3.15;1.10;;;11.80;99.90;;;;;;5007102;28;19921;-56
2022/05/24 07:34:44;;;;;;;2.08;0.80;;;11.90;99.90;;;;;;4995583;28;20046;-55
2022/05/24 07:37:15;;;;;;;17.55;2.25;;;12.00;99.90;;;;;;4991344;28;20474;-56
2022/05/24 07:39:43;;;;;;;2.65;0.70;;;12.10;99.90;;;;;;5005747;28;20516;-56
2022/05/24 07:47:44;;;;;;;3.95;0.82;;;12.40;99.90;;;;;;4994797;28;20445;-56
2022/05/24 07:50:11;;;;;;;2.50;0.85;;;12.50;99.90;;;;;;5004620;28;20481;-56
2022/05/24 07:52:39;;;;;;;2.22;1.25;;;12.60;99.90;;;;;;5008923;28;20038;-56
2022/05/24 07:55:07;;;;;;;2.78;1.33;;;12.70;99.90;;;;;;5007032;28;20049;-56
2022/05/24 07:57:36;;;;;;;2.53;1.10;;;12.70;99.90;;;;;;4996912;28;20049;-56
2022/05/24 08:00:06;;;;;;;2.75;0.68;;;12.70;99.90;;;;;;5008787;28;20042;-56
2022/05/24 08:02:40;;;;;;;2.83;0.80;;;12.70;99.90;;;;;;5008991;28;20042;-56
2022/05/24 08:05:09;;;;;;;5.15;0.70;;;12.70;99.90;;;;;;4997588;28;20061;-56
2022/05/24 08:07:38;;;;;;;2.83;0.80;;;12.60;99.90;;;;;;5012982;28;20054;-55
2022/05/24 08:10:06;;;;;;;1.17;0.70;;;12.60;99.90;;;;;;5028445;28;20079;-57
2022/05/24 08:12:39;;;;;;;6.13;0.75;;;12.60;99.90;;;;;;5021258;28;20508;-56
2022/05/24 08:15:08;;;;;;;0.93;0.90;;;12.70;99.90;;;;;;5009892;28;20042;-56
2022/05/24 08:17:36;;;;;;;4.33;1.30;;;12.80;99.90;;;;;;5013294;28;20525;-57
2022/05/24 08:20:06;;;;;;;0.82;0.70;;;12.90;99.90;;;;;;5007547;28;20046;-56
2022/05/24 08:22:34;;;;;;;2.13;0.50;;;13.00;99.90;;;;;;5004181;28;20041;-55
2022/05/24 08:25:01;;;;;;;2.13;0.47;;;13.10;99.90;;;;;;5029361;28;20050;-56
2022/05/24 08:27:29;;;;;;;0.77;0.40;;;13.00;99.90;;;;;;5027852;28;20046;-56
2022/05/24 08:29:57;;;;;;;0.50;0.32;;;13.00;99.90;;;;;;5029248;28;20056;-56
2022/05/24 08:32:26;;;;;;;0.43;0.43;;;12.80;99.90;;;;;;5011089;28;20053;-56
2022/05/24 08:34:53;;;;;;;3.47;0.65;;;12.60;99.90;;;;;;5006429;28;20049;-56
2022/05/24 08:37:22;;;;;;;4.10;1.10;;;12.60;99.90;;;;;;5008054;28;20050;-56
2022/05/24 08:39:49;;;;;;;4.97;0.80;;;12.60;99.90;;;;;;5007456;28;20042;-56
2022/05/24 08:42:58;;;;;;;5.20;0.82;;;12.60;99.90;;;;;;5009421;28;20057;-56
2022/05/24 08:48:30;;;;;;;2.67;1.40;;;12.90;99.90;;;;;;5008438;28;20049;-56
2022/05/24 08:51:16;;;;;;;10.70;3.08;;;13.00;99.90;;;;;;5004621;28;20042;-56
2022/05/24 08:53:46;;;;;;;6.07;1.58;;;13.10;99.90;;;;;;5004386;28;20038;-56
2022/05/24 08:56:29;;;;;;;6.13;1.17;;;13.10;99.90;;;;;;5008300;28;20050;-56
2022/05/24 08:59:04;;;;;;;2.42;0.68;;;13.20;99.90;;;;;;5011563;28;20053;-56
2022/05/24 09:01:32;;;;;;;5.60;0.60;;;13.20;99.90;;;;;;5011193;28;20065;-56
2022/05/24 09:04:05;;;;;;;3.35;0.50;;;13.20;99.90;;;;;;5011911;28;20045;-56
2022/05/24 09:07:08;;;;;;;2.63;1.20;;;13.30;99.90;;;;;;5001388;28;20045;-56
2022/05/24 09:09:54;;;;;;;0.85;0.70;;;13.50;99.90;;;;;;5009767;28;20473;-56
2022/05/24 09:12:53;;;;;;;8.82;0.68;;;13.70;99.90;;;;;;5011639;28;20065;-56
2022/05/24 09:15:47;;;;;;;5.07;0.68;;;13.80;99.90;;;;;;5012834;28;20049;-56
2022/05/24 09:18:50;;;;;;;2.97;0.77;;;13.80;99.90;;;;;;5021197;28;20045;-56
2022/05/24 09:21:32;;;;;;;2.33;0.25;;;13.70;99.90;;;;;;5002500;28;20061;-56
2022/05/24 09:24:22;;;;;;;1.02;0.20;;;13.50;99.90;;;;;;5009046;28;20060;-56
2022/05/24 09:27:16;;;;;;;2.30;0.50;;;13.30;99.90;;;;;;5012679;28;20056;-56
2022/05/24 09:29:58;;;;;;;2.63;0.40;;;13.10;99.90;;;;;;5009324;28;20042;-56
2022/05/24 09:32:30;;;;;;;0.98;0.25;;;13.00;99.90;;;;;;5010679;28;20054;-56
2022/05/24 09:35:08;;;;;;;5.75;0.95;;;13.10;99.90;;;;;;5007727;28;20512;-56
2022/05/24 09:37:37;;;;;;;4.00;0.50;;;13.20;99.90;;;;;;5012247;28;20046;-57
2022/05/24 09:40:22;;;;;;;1.38;0.30;;;13.30;99.90;;;;;;5012287;28;20401;-56
2022/05/24 09:42:51;;;;;;;0.85;0.22;;;13.30;99.90;;;;;;5012363;28;20054;-57
2022/05/24 09:45:26;;;;;;;2.40;0.30;;;13.10;99.90;;;;;;5011488;28;20049;-57
2022/05/24 09:47:58;;;;;;;1.77;0.20;;;12.90;99.90;;;;;;5010102;28;20389;-56
2022/05/24 09:50:37;;;;;;;0.35;0.10;;;12.70;99.90;;;;;;5003114;28;20490;-56
2022/05/24 09:53:16;;;;;;;1.35;0.28;;;12.50;99.90;;;;;;5001333;28;20068;-55
2022/05/24 09:55:47;;;;;;;1.85;0.38;;;12.40;99.90;;;;;;5009850;28;20076;-57
2022/05/24 09:58:19;;;;;;;2.83;0.30;;;12.40;99.90;;;;;;5009022;28;20042;-56
2022/05/24 10:00:51;;;;;;;2.00;0.47;;;12.50;99.90;;;;;;5008805;28;20056;-56
2022/05/24 10:03:36;;;;;;;2.70;0.40;;;12.60;99.90;;;;;;5009457;28;20061;-55
2022/05/24 10:06:09;;;;;;;5.63;0.50;;;12.80;99.90;;;;;;5001011;28;20042;-56
2022/05/24 10:09:05;;;;;;;0.85;0.43;;;13.00;99.90;;;;;;5019224;28;20046;-56
2022/05/24 10:12:11;;;;;;;1.02;0.60;;;13.20;99.90;;;;;;4991885;28;20061;-56
2022/05/24 10:14:43;;;;;;;2.00;0.77;;;13.50;99.90;;;;;;4956912;28;20804;-56
2022/05/24 10:17:32;;;;;;;7.07;1.00;;;13.60;99.90;;;;;;4963797;28;20047;-56
2022/05/24 10:20:12;;;;;;;2.37;0.63;;;13.70;99.90;;;;;;4993586;28;20633;-56
2022/05/24 10:22:46;;;;;;;0.82;0.57;;;14.00;99.90;;;;;;5009831;28;20046;-56
2022/05/24 10:25:52;;;;;;;2.42;0.50;;;14.20;99.90;;;;;;5010610;28;20046;-56
2022/05/24 10:28:38;;;;;;;2.40;0.60;;;14.40;99.90;;;;;;5019733;28;20068;-56
2022/05/24 10:31:27;;;;;;;0.57;0.57;;;14.70;99.90;;;;;;5030056;28;20056;-56
2022/05/24 10:40:35;;;;;;;3.22;0.63;;;15.50;99.90;;;;;;4995020;28;20500;-56
2022/05/24 10:43:22;;;;;;;5.25;0.88;;;15.70;99.90;;;;;;5020187;28;20041;-56
2022/05/24 10:46:00;;;;;;;1.25;0.50;;;15.80;99.90;;;;;;5030762;28;20060;-56
2022/05/24 10:48:36;;;;;;;3.85;0.98;;;15.80;99.90;;;;;;5031081;28;20061;-56
2022/05/24 10:51:15;;;;;;;1.50;0.73;;;15.60;99.90;;;;;;5006280;28;20058;-56
2022/05/24 10:54:08;;;;;;;2.08;0.40;;;15.50;99.90;;;;;;5009539;28;20069;-56
2022/05/24 10:56:46;;;;;;;3.50;0.55;;;15.50;99.90;;;;;;5011149;28;20050;-56
2022/05/24 10:59:35;;;;;;;3.67;0.75;;;15.60;99.90;;;;;;5010699;28;20512;-56
2022/05/24 11:02:14;;;;;;;4.97;1.05;;;15.60;99.90;;;;;;5010740;28;20054;-56
2022/05/24 11:05:04;;;;;;;2.50;1.10;;;15.60;99.90;;;;;;5009900;28;20045;-56
2022/05/24 11:07:34;;;;;;;2.58;0.40;;;15.40;99.90;;;;;;4994262;28;20437;-56
2022/05/24 11:10:25;;;;;;;3.40;0.65;;;15.20;99.90;;;;;;5005528;28;20497;-56
2022/05/24 11:12:58;;;;;;;2.55;0.30;;;15.10;99.90;;;;;;5004455;28;20699;-56
2022/05/24 11:15:36;;;;;;;3.10;0.50;;;15.20;99.90;;;;;;5007465;28;20382;-57
2022/05/24 11:18:15;;;;;;;1.00;0.30;;;15.40;99.90;;;;;;5007953;28;20050;-56
2022/05/24 11:21:14;;;;;;;1.17;0.70;;;15.70;99.90;;;;;;5010038;28;20073;-56
2022/05/24 11:23:58;;;;;;;1.27;0.43;;;16.10;99.90;;;;;;5008404;28;20045;-56
2022/05/24 11:26:29;;;;;;;1.25;0.70;;;16.40;99.90;;;;;;5010550;28;20060;-56
2022/05/24 11:29:24;;;;;;;1.80;0.52;;;16.60;99.90;;;;;;5010326;28;20046;-57
2022/05/24 11:32:03;;;;;;;6.82;0.85;;;16.80;99.90;;;;;;5010521;28;20049;-56
2022/05/24 11:34:35;;;;;;;0.85;0.43;;;16.80;99.90;;;;;;5008311;28;20056;-56
2022/05/24 11:37:14;;;;;;;5.93;0.63;;;16.70;99.90;;;;;;5010359;28;20045;-56
2022/05/24 11:39:44;;;;;;;6.78;0.32;;;16.50;99.90;;;;;;4991707;28;20482;-55
2022/05/24 11:42:40;;;;;;;3.85;0.50;;;16.30;99.90;;;;;;5010093;28;20056;-56
2022/05/24 11:45:30;;;;;;;5.28;0.88;;;16.20;99.90;;;;;;5009058;28;20046;-56
2022/05/24 11:48:04;;;;;;;6.88;0.77;;;16.20;99.90;;;;;;5008185;28;20041;-56
2022/05/24 11:50:43;;;;;;;2.50;0.50;;;16.20;99.90;;;;;;5009997;28;20045;-55
2022/05/24 11:53:17;;;;;;;2.33;0.40;;;16.20;99.90;;;;;;5006202;28;20402;-57
2022/05/24 11:55:57;;;;;;;1.17;0.20;;;16.50;99.90;;;;;;5010126;28;20054;-56
2022/05/24 11:58:44;;;;;;;1.55;0.30;;;16.90;99.90;;;;;;5009943;28;20041;-56
2022/05/24 12:01:14;;;;;;;4.30;0.55;;;17.10;99.90;;;;;;5009826;28;20046;-56
2022/05/24 12:10:11;;;;;;;3.20;0.57;;;17.90;99.90;;;;;;4972015;28;20269;-56
2022/05/24 12:12:53;;;;;;;3.30;0.30;;;18.40;98.80;;;;;;4993451;28;20065;-56
2022/05/24 12:15:43;;;;;;;3.38;0.40;;;18.70;96.40;;;;;;5009873;28;20494;-56
2022/05/24 12:18:14;;;;;;;2.60;0.50;;;18.70;95.30;;;;;;4999751;28;20057;-56
2022/05/24 12:20:42;;;;;;;5.35;0.57;;;18.30;94.70;;;;;;5009590;28;20053;-56
2022/05/24 12:23:28;;;;;;;1.10;0.30;;;17.90;95.90;;;;;;5008554;28;20073;-56
2022/05/24 12:26:07;;;;;;;3.00;0.30;;;17.60;95.00;;;;;;5009626;28;20061;-56
2022/05/24 12:28:35;;;;;;;1.75;0.30;;;17.70;96.90;;;;;;5009659;28;20048;-56
2022/05/24 12:31:16;;;;;;;0.75;0.73;;;18.10;96.40;;;;;;5009941;28;20049;-56
2022/05/24 12:33:53;;;;;;;0.68;0.30;;;18.60;95.70;;;;;;5011469;28;20522;-59
2022/05/24 12:36:41;;;;;;;1.27;0.52;;;19.00;94.10;;;;;;5012187;28;20045;-58
2022/05/24 12:39:32;;;;;;;1.33;0.32;;;19.10;92.30;;;;;;5000746;28;20062;-59
2022/05/24 12:42:05;;;;;;;2.38;0.50;;;18.70;92.00;;;;;;4995479;28;20054;-58
2022/05/24 12:44:41;;;;;;;1.77;0.38;;;18.40;92.70;;;;;;5013630;28;20074;-58
2022/05/24 12:47:09;;;;;;;1.42;0.98;;;18.00;92.30;;;;;;5012606;28;20053;-58
2022/05/24 12:49:54;;;;;;;5.25;0.40;;;17.60;93.50;;;;;;5001276;28;20046;-58
2022/05/24 12:52:28;;;;;;;1.23;0.28;;;17.70;95.30;;;;;;4995549;28;20043;-59
2022/05/24 12:54:57;;;;;;;1.52;0.20;;;17.90;96.10;;;;;;4993651;28;20065;-58
2022/05/24 12:57:38;;;;;;;1.77;0.30;;;18.10;94.80;;;;;;4995484;28;20046;-58
2022/05/24 13:00:08;;;;;;;4.05;0.60;;;17.90;92.60;;;;;;5013162;28;20296;-58
2022/05/24 13:02:45;;;;;;;1.10;0.32;;;17.70;92.90;;;;;;5011596;28;20045;-58
2022/05/24 13:05:21;;;;;;;2.75;0.40;;;17.40;93.80;;;;;;5011262;28;20065;-58
2022/05/24 13:07:53;;;;;;;3.25;1.58;;;17.10;93.20;;;;;;5013216;28;20053;-56
2022/05/24 13:10:23;;;;;;;4.50;0.30;;;16.90;93.50;;;;;;5004031;28;20046;-56
2022/05/24 13:13:03;;;;;;;3.17;0.30;;;16.70;94.10;;;;;;5011761;28;20045;-56
2022/05/24 13:15:59;;;;;;;2.30;0.40;;;17.10;96.70;;;;;;5011975;28;20052;-56
2022/05/24 13:18:33;;;;;;;1.75;0.13;;;17.70;93.00;;;;;;5011113;28;20695;-56
2022/05/24 13:21:08;;;;;;;1.55;0.28;;;17.90;90.70;;;;;;5011462;28;20049;-56
2022/05/24 13:23:39;;;;;;;3.80;0.38;;;18.20;92.90;;;;;;5010851;28;20065;-56
2022/05/24 13:26:09;;;;;;;3.00;0.20;;;18.60;92.30;;;;;;4993285;28;20050;-58
2022/05/24 13:28:37;;;;;;;4.43;1.00;;;19.10;91.90;;;;;;5011271;28;20398;-58
2022/05/24 13:34:16;;;;;;;2.25;0.30;;;20.40;90.90;;;;;;5007033;28;20054;-59
2022/05/24 13:36:47;;;;;;;1.05;0.38;;;20.80;86.00;;;;;;5012785;28;20072;-59
2022/05/24 13:39:22;;;;;;;3.95;0.65;;;20.50;81.70;;;;;;5006271;28;20050;-59
2022/05/24 13:42:07;;;;;;;5.63;0.35;;;19.90;79.50;;;;;;4992876;28;20513;-59
2022/05/24 13:45:15;;;;;;;2.80;0.47;;;19.20;83.00;;;;;;5003477;28;20057;-59
2022/05/24 13:47:43;;;;;;;8.27;0.40;;;18.50;84.10;;;;;;5012137;28;20050;-58
2022/05/24 13:50:41;;;;;;;0.55;0.40;;;17.90;87.00;;;;;;5012321;28;20045;-59
2022/05/24 13:53:25;;;;;;;8.38;0.50;;;17.50;89.40;;;;;;5012065;28;20045;-58
2022/05/24 13:55:56;;;;;;;11.80;0.60;;;17.20;93.10;;;;;;4993717;28;20050;-58
2022/05/24 13:58:41;;;;;;;2.42;0.30;;;17.30;99.20;;;;;;5010158;28;20049;-58
2022/05/24 14:01:31;;;;;;;4.57;0.63;;;17.90;97.20;;;;;;5025567;28;20057;-58
2022/05/24 14:04:01;;;;;;;1.15;0.50;;;18.20;95.50;;;;;;5011785;28;20097;-59
2022/05/24 14:06:29;;;;;;;5.07;0.40;;;18.60;95.30;;;;;;5008755;28;20061;-58
2022/05/24 14:08:59;;;;;;;1.05;0.10;;;18.70;93.70;;;;;;5021354;28;20049;-59